createdAt,value
2018-08-13T00:01:11.839Z,18.70
2018-08-13T00:03:39.933Z,18.70
2018-08-13T00:06:08.070Z,18.60
2018-08-13T00:08:36.200Z,18.50
2018-08-13T00:11:04.340Z,18.50
2018-08-13T00:13:32.465Z,18.50
2018-08-13T00:16:00.574Z,18.60
2018-08-13T00:18:28.747Z,18.60
2018-08-13T00:20:56.893Z,18.50
2018-08-13T00:23:24.992Z,18.50
2018-08-13T00:25:53.104Z,18.50
2018-08-13T00:28:21.227Z,18.50
2018-08-13T00:30:49.306Z,18.50
2018-08-13T00:33:17.390Z,18.40
2018-08-13T00:35:45.500Z,18.40
2018-08-13T00:38:13.576Z,18.40
2018-08-13T00:40:41.674Z,18.30
2018-08-13T00:43:09.836Z,18.20
2018-08-13T00:45:37.982Z,18.10
2018-08-13T00:48:06.527Z,18.00
2018-08-13T00:50:34.669Z,18.00
2018-08-13T00:53:02.796Z,18.00
2018-08-13T00:55:30.919Z,18.10
2018-08-13T00:57:59.014Z,18.10
2018-08-13T01:00:27.302Z,18.10
2018-08-13T01:02:55.445Z,18.10
2018-08-13T01:05:23.596Z,18.10
2018-08-13T01:07:51.673Z,18.20
2018-08-13T01:10:21.037Z,18.20
2018-08-13T01:12:49.177Z,18.20
2018-08-13T01:15:18.305Z,18.20
2018-08-13T01:17:47.570Z,18.10
2018-08-13T01:20:16.863Z,18.10
2018-08-13T01:22:44.990Z,18.00
2018-08-13T01:25:14.612Z,18.10
2018-08-13T01:27:43.345Z,18.10
2018-08-13T01:30:13.005Z,18.00
2018-08-13T01:32:41.171Z,18.00
2018-08-13T01:35:09.302Z,18.00
2018-08-13T01:37:37.424Z,18.00
2018-08-13T01:40:07.595Z,18.00
2018-08-13T01:42:35.892Z,17.90
2018-08-13T01:45:04.660Z,17.90
2018-08-13T01:47:32.810Z,17.90
2018-08-13T01:50:01.102Z,17.80
2018-08-13T01:52:29.246Z,17.90
2018-08-13T01:54:57.362Z,18.00
2018-08-13T01:57:25.496Z,18.00
2018-08-13T01:59:53.612Z,18.10
2018-08-13T02:02:21.740Z,18.10
2018-08-13T02:04:49.833Z,18.00
2018-08-13T02:07:17.921Z,17.90
2018-08-13T02:09:46.039Z,17.90
2018-08-13T02:12:14.147Z,17.90
2018-08-13T02:14:42.286Z,17.90
2018-08-13T02:17:10.410Z,17.90
2018-08-13T02:19:38.520Z,17.70
2018-08-13T02:22:06.651Z,17.60
2018-08-13T02:24:34.795Z,17.60
2018-08-13T02:27:02.882Z,17.60
2018-08-13T02:29:31.018Z,17.70
2018-08-13T02:31:59.126Z,17.60
2018-08-13T02:34:27.347Z,17.50
2018-08-13T02:36:55.488Z,17.40
2018-08-13T02:39:23.616Z,17.40
2018-08-13T02:41:51.737Z,17.50
2018-08-13T02:44:19.876Z,17.40
2018-08-13T02:46:48.023Z,17.40
2018-08-13T02:49:16.120Z,17.30
2018-08-13T02:51:44.213Z,17.20
2018-08-13T02:54:12.325Z,17.20
2018-08-13T02:56:41.287Z,17.10
2018-08-13T02:59:09.408Z,17.20
2018-08-13T03:01:37.560Z,17.20
2018-08-13T03:04:05.694Z,17.20
2018-08-13T03:06:33.873Z,17.20
2018-08-13T03:09:02.013Z,17.20
2018-08-13T03:11:30.124Z,17.20
2018-08-13T03:13:58.296Z,17.10
2018-08-13T03:16:26.432Z,17.10
2018-08-13T03:18:54.574Z,17.10
2018-08-13T03:21:22.684Z,17.10
2018-08-13T03:23:50.790Z,17.10
2018-08-13T03:26:18.974Z,17.10
2018-08-13T03:28:47.078Z,17.00
2018-08-13T03:31:15.276Z,17.00
2018-08-13T03:33:43.416Z,17.00
2018-08-13T03:36:11.605Z,17.00
2018-08-13T03:38:39.782Z,16.90
2018-08-13T03:41:07.963Z,16.90
2018-08-13T03:43:36.180Z,16.90
2018-08-13T03:46:04.339Z,16.90
2018-08-13T03:48:32.493Z,16.90
2018-08-13T03:51:00.694Z,16.80
2018-08-13T03:53:28.866Z,16.80
2018-08-13T03:55:57.037Z,16.80
2018-08-13T03:58:25.122Z,16.80
2018-08-13T04:00:53.251Z,16.70
2018-08-13T04:03:21.390Z,16.70
2018-08-13T04:05:49.545Z,16.70
2018-08-13T04:08:17.659Z,16.80
2018-08-13T04:10:45.819Z,16.70
2018-08-13T04:13:13.952Z,16.80
2018-08-13T04:15:42.298Z,16.80
2018-08-13T04:18:10.471Z,16.80
2018-08-13T04:20:38.567Z,16.80
2018-08-13T04:23:06.717Z,16.80
2018-08-13T04:25:34.852Z,16.80
2018-08-13T04:28:02.983Z,16.80
2018-08-13T04:30:31.531Z,16.80
2018-08-13T04:32:59.783Z,16.90
2018-08-13T04:35:27.905Z,16.90
2018-08-13T04:37:56.006Z,16.90
2018-08-13T04:40:24.134Z,16.90
2018-08-13T04:42:52.233Z,17.00
2018-08-13T04:45:20.401Z,17.00
2018-08-13T04:47:49.929Z,16.90
2018-08-13T04:50:18.184Z,17.00
2018-08-13T04:52:46.307Z,17.00
2018-08-13T04:55:14.778Z,17.10
2018-08-13T04:57:43.008Z,17.10
2018-08-13T05:00:11.152Z,17.10
2018-08-13T05:02:39.475Z,17.10
2018-08-13T05:05:08.681Z,17.20
2018-08-13T05:07:36.799Z,17.20
2018-08-13T05:10:06.064Z,17.30
2018-08-13T05:12:34.152Z,17.30
2018-08-13T05:15:02.283Z,17.40
2018-08-13T05:17:30.708Z,17.50
2018-08-13T05:19:58.772Z,17.50
2018-08-13T05:22:27.062Z,17.70
2018-08-13T05:24:55.198Z,17.70
2018-08-13T05:27:23.320Z,17.80
2018-08-13T05:29:51.417Z,18.00
2018-08-13T05:32:19.554Z,18.10
2018-08-13T05:34:52.675Z,18.30
2018-08-13T05:37:20.802Z,18.40
2018-08-13T05:39:48.935Z,18.60
2018-08-13T05:42:17.052Z,18.70
2018-08-13T05:44:45.165Z,18.80
2018-08-13T05:47:13.312Z,18.90
2018-08-13T05:49:41.450Z,18.90
2018-08-13T05:52:09.613Z,19.10
2018-08-13T05:54:37.759Z,19.20
2018-08-13T05:57:05.930Z,19.30
2018-08-13T05:59:34.106Z,19.50
2018-08-13T06:02:02.504Z,19.60
2018-08-13T06:04:30.667Z,19.80
2018-08-13T06:06:58.826Z,19.80
2018-08-13T06:09:26.952Z,19.90
2018-08-13T06:11:55.112Z,19.90
2018-08-13T06:14:23.264Z,20.00
2018-08-13T06:16:51.470Z,20.00
2018-08-13T06:19:19.598Z,20.00
2018-08-13T06:21:47.942Z,20.10
2018-08-13T06:24:16.132Z,20.20
2018-08-13T06:26:44.215Z,20.20
2018-08-13T06:29:12.414Z,20.30
2018-08-13T06:31:40.583Z,20.50
2018-08-13T06:34:09.020Z,20.60
2018-08-13T06:36:37.230Z,20.60
2018-08-13T06:39:08.044Z,20.70
2018-08-13T06:41:36.147Z,20.90
2018-08-13T06:44:04.305Z,21.00
2018-08-13T06:46:32.437Z,21.00
2018-08-13T06:49:00.553Z,21.10
2018-08-13T06:51:28.727Z,21.20
2018-08-13T06:53:56.914Z,21.30
2018-08-13T06:56:25.102Z,21.40
2018-08-13T06:58:53.240Z,21.60
2018-08-13T07:01:21.388Z,21.70
2018-08-13T07:03:49.511Z,21.80
2018-08-13T07:06:17.663Z,22.00
2018-08-13T07:08:45.844Z,22.20
2018-08-13T07:11:14.223Z,22.40
2018-08-13T07:13:42.384Z,22.50
2018-08-13T07:16:10.568Z,22.50
2018-08-13T07:18:38.668Z,22.70
2018-08-13T07:21:06.817Z,22.90
2018-08-13T07:23:35.030Z,23.20
2018-08-13T07:26:03.143Z,23.40
2018-08-13T07:28:33.069Z,23.80
2018-08-13T07:31:01.336Z,24.50
2018-08-13T07:33:29.513Z,25.10
2018-08-13T07:35:57.673Z,25.80
2018-08-13T07:38:25.823Z,26.70
2018-08-13T07:40:53.972Z,27.30
2018-08-13T07:43:22.117Z,27.70
2018-08-13T07:45:50.255Z,28.20
2018-08-13T07:48:18.387Z,28.40
2018-08-13T07:50:46.490Z,28.60
2018-08-13T07:53:14.596Z,28.80
2018-08-13T07:55:42.736Z,28.70
2018-08-13T07:58:10.840Z,28.50
2018-08-13T08:00:38.954Z,27.90
2018-08-13T08:03:07.055Z,27.30
2018-08-13T08:05:35.223Z,26.80
2018-08-13T08:08:03.428Z,26.50
2018-08-13T08:10:31.705Z,26.20
2018-08-13T08:12:59.900Z,26.10
2018-08-13T08:15:28.116Z,26.00
2018-08-13T08:17:56.226Z,26.00
2018-08-13T08:20:24.411Z,26.00
2018-08-13T08:22:53.009Z,26.00
2018-08-13T08:25:22.138Z,26.00
2018-08-13T08:27:51.092Z,25.90
2018-08-13T08:30:20.169Z,26.00
2018-08-13T08:32:48.308Z,26.00
2018-08-13T08:35:17.434Z,26.10
2018-08-13T08:37:45.767Z,26.10
2018-08-13T08:40:16.195Z,26.10
2018-08-13T08:42:51.097Z,26.30
2018-08-13T08:45:24.094Z,26.40
2018-08-13T08:47:53.186Z,26.60
2018-08-13T08:50:21.285Z,26.70
2018-08-13T08:52:49.546Z,26.80
2018-08-13T08:55:18.402Z,26.90
2018-08-13T08:57:47.278Z,27.00
2018-08-13T09:00:21.158Z,27.10
2018-08-13T09:02:50.230Z,27.30
2018-08-13T09:05:18.380Z,27.60
2018-08-13T09:07:46.819Z,27.60
2018-08-13T09:10:15.051Z,27.60
2018-08-13T09:12:43.181Z,27.40
2018-08-13T09:15:15.041Z,27.30
2018-08-13T09:17:55.098Z,27.40
2018-08-13T09:20:34.536Z,27.50
2018-08-13T09:23:14.148Z,27.70
2018-08-13T09:25:53.726Z,27.80
2018-08-13T09:28:33.177Z,27.90
2018-08-13T09:31:12.791Z,28.00
2018-08-13T09:33:52.474Z,27.90
2018-08-13T09:36:20.550Z,28.00
2018-08-13T09:38:48.733Z,28.10
2018-08-13T09:41:16.851Z,28.10
2018-08-13T09:43:45.102Z,28.10
2018-08-13T09:46:13.194Z,28.20
2018-08-13T09:48:41.266Z,28.20
2018-08-13T09:51:09.592Z,28.30
2018-08-13T09:53:37.776Z,28.40
2018-08-13T09:56:06.078Z,28.40
2018-08-13T09:58:34.189Z,28.50
2018-08-13T10:01:11.651Z,28.60
2018-08-13T10:03:40.133Z,28.60
2018-08-13T10:06:08.311Z,28.60
2018-08-13T10:08:43.054Z,28.80
2018-08-13T10:11:11.159Z,28.90
2018-08-13T10:13:39.257Z,29.00
2018-08-13T10:16:07.508Z,29.10
2018-08-13T10:18:35.654Z,29.10
2018-08-13T10:21:03.846Z,29.10
2018-08-13T10:23:31.945Z,29.20
2018-08-13T10:26:00.066Z,29.20
2018-08-13T10:28:28.180Z,29.30
2018-08-13T10:30:56.338Z,29.40
2018-08-13T10:33:24.555Z,29.40
2018-08-13T10:35:52.693Z,29.30
2018-08-13T10:38:20.816Z,29.40
2018-08-13T10:40:49.134Z,29.50
2018-08-13T10:43:17.569Z,29.50
2018-08-13T10:45:45.722Z,29.50
2018-08-13T10:48:13.920Z,29.70
2018-08-13T10:50:42.051Z,29.80
2018-08-13T10:53:10.142Z,29.90
2018-08-13T10:55:38.250Z,30.00
2018-08-13T10:58:06.633Z,29.80
2018-08-13T11:00:34.839Z,29.90
2018-08-13T11:03:03.009Z,29.90
2018-08-13T11:05:31.079Z,29.90
2018-08-13T11:07:59.160Z,30.00
2018-08-13T11:10:27.313Z,29.90
2018-08-13T11:12:55.361Z,29.90
2018-08-13T11:15:23.519Z,30.00
2018-08-13T11:17:51.638Z,30.10
2018-08-13T11:20:19.734Z,30.10
2018-08-13T11:22:47.821Z,30.20
2018-08-13T11:25:16.339Z,30.30
2018-08-13T11:27:44.651Z,30.40
2018-08-13T11:30:13.850Z,30.30
2018-08-13T11:32:42.020Z,30.30
2018-08-13T11:35:10.327Z,30.40
2018-08-13T11:37:38.483Z,30.50
2018-08-13T11:40:11.815Z,30.60
2018-08-13T11:42:40.198Z,30.70
2018-08-13T11:45:08.884Z,30.60
2018-08-13T11:47:37.813Z,30.50
2018-08-13T11:50:09.833Z,30.40
2018-08-13T11:52:37.965Z,30.50
2018-08-13T11:55:06.095Z,30.50
2018-08-13T11:57:34.774Z,30.70
2018-08-13T12:00:04.531Z,30.70
2018-08-13T12:02:32.694Z,30.70
2018-08-13T12:05:00.922Z,30.60
2018-08-13T12:07:29.116Z,30.60
2018-08-13T12:09:57.484Z,30.50
2018-08-13T12:12:25.606Z,30.40
2018-08-13T12:14:53.719Z,30.60
2018-08-13T12:17:21.810Z,30.50
2018-08-13T12:19:49.918Z,30.40
2018-08-13T12:22:18.086Z,30.40
2018-08-13T12:24:46.271Z,30.20
2018-08-13T12:27:14.493Z,30.00
2018-08-13T12:29:42.563Z,30.10
2018-08-13T12:32:10.816Z,30.10
2018-08-13T12:34:39.146Z,30.10
2018-08-13T12:37:08.771Z,30.10
2018-08-13T12:39:37.722Z,30.20
2018-08-13T12:42:06.290Z,30.30
2018-08-13T12:44:34.619Z,30.30
2018-08-13T12:47:02.748Z,30.40
2018-08-13T12:49:30.876Z,30.50
2018-08-13T12:51:59.040Z,30.60
2018-08-13T12:54:27.182Z,30.60
2018-08-13T12:56:55.292Z,30.70
2018-08-13T12:59:23.415Z,30.90
2018-08-13T13:01:51.499Z,31.10
2018-08-13T13:04:19.607Z,31.40
2018-08-13T13:06:47.782Z,31.80
2018-08-13T13:09:15.895Z,32.00
2018-08-13T13:11:44.064Z,31.90
2018-08-13T13:14:12.218Z,31.70
2018-08-13T13:16:40.314Z,31.60
2018-08-13T13:19:08.893Z,31.40
2018-08-13T13:21:37.052Z,31.30
2018-08-13T13:24:05.447Z,31.30
2018-08-13T13:26:33.788Z,31.30
2018-08-13T13:29:02.071Z,31.40
2018-08-13T13:31:30.226Z,31.40
2018-08-13T13:33:58.383Z,31.20
2018-08-13T13:36:26.581Z,31.10
2018-08-13T13:38:54.721Z,31.10
2018-08-13T13:41:23.215Z,31.00
2018-08-13T13:43:51.455Z,31.10
2018-08-13T13:46:19.740Z,31.10
2018-08-13T13:48:47.858Z,31.10
2018-08-13T13:51:15.951Z,31.20
2018-08-13T13:53:44.150Z,31.10
2018-08-13T13:56:12.255Z,31.10
2018-08-13T13:58:40.388Z,31.00
2018-08-13T14:01:13.476Z,30.90
2018-08-13T14:03:41.585Z,30.80
2018-08-13T14:06:09.706Z,30.80
2018-08-13T14:08:37.878Z,30.80
2018-08-13T14:11:05.984Z,30.80
2018-08-13T14:13:34.179Z,30.60
2018-08-13T14:16:02.289Z,30.50
2018-08-13T14:18:30.497Z,30.40
2018-08-13T14:20:58.662Z,30.40
2018-08-13T14:23:27.850Z,30.40
2018-08-13T14:25:55.999Z,30.30
2018-08-13T14:28:24.115Z,30.30
2018-08-13T14:30:52.229Z,30.20
2018-08-13T14:33:20.354Z,30.10
2018-08-13T14:35:48.483Z,30.10
2018-08-13T14:38:16.595Z,30.00
2018-08-13T14:40:44.711Z,30.00
2018-08-13T14:43:12.889Z,29.90
2018-08-13T14:45:41.302Z,29.90
2018-08-13T14:48:09.481Z,29.80
2018-08-13T14:50:37.642Z,29.80
2018-08-13T14:53:05.777Z,29.70
2018-08-13T14:55:33.919Z,29.70
2018-08-13T14:58:02.054Z,29.70
2018-08-13T15:00:32.011Z,29.80
2018-08-13T15:03:00.111Z,29.80
2018-08-13T15:05:28.255Z,29.60
2018-08-13T15:07:56.385Z,29.50
2018-08-13T15:10:25.301Z,29.40
2018-08-13T15:12:53.490Z,29.30
2018-08-13T15:15:21.645Z,29.20
2018-08-13T15:17:49.740Z,29.10
2018-08-13T15:20:23.694Z,29.00
2018-08-13T15:22:51.844Z,29.00
2018-08-13T15:25:23.518Z,28.90
2018-08-13T15:27:54.014Z,28.80
2018-08-13T15:30:22.748Z,28.70
2018-08-13T15:32:51.605Z,28.50
2018-08-13T15:35:19.806Z,28.30
2018-08-13T15:37:48.433Z,28.10
2018-08-13T15:40:16.562Z,27.80
2018-08-13T15:42:44.749Z,27.70
2018-08-13T15:45:15.751Z,27.50
2018-08-13T15:47:43.862Z,27.40
2018-08-13T15:50:13.675Z,27.20
2018-08-13T15:52:41.958Z,27.20
2018-08-13T15:55:10.081Z,27.10
2018-08-13T15:57:38.213Z,26.90
2018-08-13T16:00:07.640Z,26.70
2018-08-13T16:02:36.401Z,26.50
2018-08-13T16:05:06.007Z,26.40
2018-08-13T16:07:39.583Z,26.30
2018-08-13T16:10:11.034Z,26.20
2018-08-13T16:12:39.284Z,26.10
2018-08-13T16:15:07.942Z,26.10
2018-08-13T16:17:36.473Z,26.00
2018-08-13T16:20:06.747Z,26.00
2018-08-13T16:22:34.880Z,25.80
2018-08-13T16:25:03.071Z,25.70
2018-08-13T16:27:31.222Z,25.70
2018-08-13T16:29:59.437Z,25.70
2018-08-13T16:32:27.670Z,25.60
2018-08-13T16:34:55.825Z,25.60
2018-08-13T16:37:23.943Z,25.50
2018-08-13T16:39:52.086Z,25.40
2018-08-13T16:42:20.225Z,25.30
2018-08-13T16:44:48.334Z,25.10
2018-08-13T16:47:16.470Z,25.10
2018-08-13T16:49:44.595Z,25.00
2018-08-13T16:52:12.669Z,24.90
2018-08-13T16:54:40.828Z,24.80
2018-08-13T16:57:08.945Z,24.70
2018-08-13T16:59:37.099Z,24.70
2018-08-13T17:02:05.230Z,26.60
2018-08-13T17:04:40.190Z,24.80
2018-08-13T17:07:08.369Z,24.70
2018-08-13T17:09:36.540Z,24.60
2018-08-13T17:12:04.722Z,24.60
2018-08-13T17:14:33.104Z,24.50
2018-08-13T17:17:01.133Z,24.40
2018-08-13T17:19:29.251Z,24.40
2018-08-13T17:21:57.385Z,24.30
2018-08-13T17:24:25.713Z,24.30
2018-08-13T17:26:54.002Z,24.30
2018-08-13T17:29:22.251Z,24.40
2018-08-13T17:31:50.323Z,24.40
2018-08-13T17:34:18.424Z,24.50
2018-08-13T17:36:46.570Z,24.50
2018-08-13T17:39:15.102Z,24.40
2018-08-13T17:41:43.308Z,24.40
2018-08-13T17:44:11.409Z,24.30
2018-08-13T17:46:39.639Z,24.30
2018-08-13T17:49:14.518Z,24.30
2018-08-13T17:51:42.677Z,24.40
2018-08-13T17:54:10.760Z,24.50
2018-08-13T17:56:38.884Z,24.50
2018-08-13T17:59:07.898Z,24.50
2018-08-13T18:01:36.091Z,24.50
2018-08-13T18:04:04.276Z,24.50
2018-08-13T18:06:32.769Z,24.50
2018-08-13T18:09:00.859Z,24.40
2018-08-13T18:11:29.192Z,24.20
2018-08-13T18:13:57.419Z,24.10
2018-08-13T18:16:26.539Z,24.20
2018-08-13T18:18:54.701Z,24.10
2018-08-13T18:21:22.924Z,24.00
2018-08-13T18:23:51.007Z,23.90
2018-08-13T18:26:19.135Z,23.90
2018-08-13T18:28:47.278Z,23.80
2018-08-13T18:31:15.397Z,24.00
2018-08-13T18:33:43.507Z,24.00
2018-08-13T18:36:11.902Z,24.10
2018-08-13T18:38:40.095Z,24.10
2018-08-13T18:41:08.294Z,24.10
2018-08-13T18:43:36.464Z,24.00
2018-08-13T18:46:04.652Z,24.00
2018-08-13T18:48:32.820Z,24.00
2018-08-13T18:51:01.199Z,24.00
2018-08-13T18:53:29.607Z,23.90
2018-08-13T18:55:57.762Z,23.80
2018-08-13T18:58:25.878Z,23.70
2018-08-13T19:00:55.679Z,23.70
2018-08-13T19:03:25.705Z,23.60
2018-08-13T19:05:57.135Z,23.60
2018-08-13T19:08:25.232Z,23.50
2018-08-13T19:10:53.374Z,23.50
2018-08-13T19:13:21.568Z,23.50
2018-08-13T19:15:49.724Z,23.50
2018-08-13T19:18:17.923Z,23.50
2018-08-13T19:20:46.049Z,23.40
2018-08-13T19:23:14.201Z,23.30
2018-08-13T19:25:42.352Z,23.30
2018-08-13T19:28:10.617Z,23.20
2018-08-13T19:30:38.730Z,23.20
2018-08-13T19:33:06.918Z,23.20
2018-08-13T19:35:35.345Z,23.10
2018-08-13T19:38:03.965Z,23.00
2018-08-13T19:40:32.216Z,23.00
2018-08-13T19:43:01.211Z,23.00
2018-08-13T19:45:29.601Z,23.00
2018-08-13T19:47:58.523Z,23.00
2018-08-13T19:50:27.477Z,22.90
2018-08-13T19:52:55.907Z,22.90
2018-08-13T19:55:25.031Z,22.90
2018-08-13T19:57:53.452Z,22.90
2018-08-13T20:00:25.645Z,22.90
2018-08-13T20:02:54.147Z,22.90
2018-08-13T20:05:23.604Z,22.80
2018-08-13T20:07:52.223Z,22.80
2018-08-13T20:10:20.357Z,22.80
2018-08-13T20:12:48.748Z,22.70
2018-08-13T20:15:16.848Z,22.60
2018-08-13T20:17:45.288Z,22.60
2018-08-13T20:20:15.227Z,22.50
2018-08-13T20:22:44.349Z,22.50
2018-08-13T20:25:13.858Z,22.40
2018-08-13T20:27:42.352Z,22.30
2018-08-13T20:30:12.769Z,22.30
2018-08-13T20:32:41.228Z,22.20
2018-08-13T20:35:09.516Z,22.20
2018-08-13T20:37:37.715Z,22.20
2018-08-13T20:40:07.766Z,22.10
2018-08-13T20:42:35.902Z,22.10
2018-08-13T20:45:05.224Z,22.00
2018-08-13T20:47:33.314Z,22.00
2018-08-13T20:50:01.439Z,21.90
2018-08-13T20:52:29.806Z,21.90
2018-08-13T20:54:58.230Z,21.90
2018-08-13T20:57:26.495Z,21.90
2018-08-13T20:59:55.272Z,22.00
2018-08-13T21:02:23.508Z,21.90
2018-08-13T21:04:51.853Z,21.80
2018-08-13T21:07:20.052Z,21.90
2018-08-13T21:09:49.114Z,21.90
2018-08-13T21:12:17.454Z,21.80
2018-08-13T21:14:45.562Z,21.80
2018-08-13T21:17:14.190Z,21.80
2018-08-13T21:19:42.321Z,21.70
2018-08-13T21:22:10.639Z,21.70
2018-08-13T21:24:40.325Z,21.70
2018-08-13T21:27:08.470Z,21.70
2018-08-13T21:29:36.736Z,21.60
2018-08-13T21:32:04.885Z,21.60
2018-08-13T21:34:33.011Z,21.60
2018-08-13T21:37:01.219Z,21.60
2018-08-13T21:39:29.337Z,21.60
2018-08-13T21:41:57.461Z,21.50
2018-08-13T21:44:25.562Z,21.50
2018-08-13T21:46:53.682Z,21.60
2018-08-13T21:49:21.835Z,21.60
2018-08-13T21:51:50.028Z,21.70
2018-08-13T21:54:18.218Z,21.60
2018-08-13T21:56:46.300Z,21.70
2018-08-13T21:59:14.389Z,21.70
2018-08-13T22:01:46.129Z,21.70
2018-08-13T22:04:15.407Z,21.70
2018-08-13T22:06:43.865Z,21.60
2018-08-13T22:09:12.163Z,21.70
2018-08-13T22:11:40.271Z,21.60
2018-08-13T22:14:09.725Z,21.60
2018-08-13T22:16:37.803Z,21.50
2018-08-13T22:19:06.231Z,21.50
2018-08-13T22:21:34.450Z,21.40
2018-08-13T22:24:14.187Z,21.50
2018-08-13T22:26:42.347Z,21.50
2018-08-13T22:29:10.447Z,21.50
2018-08-13T22:31:38.550Z,21.50
2018-08-13T22:34:07.463Z,21.50
2018-08-13T22:36:35.569Z,21.40
2018-08-13T22:39:05.512Z,21.40
2018-08-13T22:41:33.745Z,21.40
2018-08-13T22:44:01.906Z,21.30
2018-08-13T22:46:30.095Z,21.30
2018-08-13T22:48:58.307Z,21.30
2018-08-13T22:51:26.416Z,21.30
2018-08-13T22:53:54.515Z,21.30
2018-08-13T22:56:22.649Z,21.30
2018-08-13T22:58:50.734Z,21.30
2018-08-13T23:01:18.831Z,21.20
2018-08-13T23:03:46.924Z,21.10
2018-08-13T23:06:15.182Z,21.10
2018-08-13T23:08:43.315Z,21.10
2018-08-13T23:11:11.438Z,21.10
2018-08-13T23:13:39.511Z,21.10
2018-08-13T23:16:07.662Z,21.10
2018-08-13T23:18:35.817Z,21.10
2018-08-13T23:21:03.959Z,21.00
2018-08-13T23:23:32.133Z,21.00
2018-08-13T23:26:00.227Z,21.00
2018-08-13T23:28:28.348Z,21.00
2018-08-13T23:30:56.453Z,21.10
2018-08-13T23:33:24.586Z,21.00
2018-08-13T23:35:52.737Z,21.00
2018-08-13T23:38:20.820Z,20.90
2018-08-13T23:40:48.966Z,20.90
2018-08-13T23:43:17.088Z,20.90
2018-08-13T23:45:45.212Z,20.90
2018-08-13T23:48:13.315Z,20.90
2018-08-13T23:50:41.459Z,21.00
2018-08-13T23:53:09.549Z,20.90
2018-08-13T23:55:39.029Z,21.00
2018-08-13T23:58:10.095Z,20.90
